FNHU/NOV METAR and TAF weather

Enter ICAO airport designator
Station Type Date Time Source
FNHU METAR 2018/12/10 10:00 UTC NOAA

FNHU 101000Z 34005KT 9999 FEW010 24/16 Q1024


Station Type Date Time Source
FNHU Decoded METAR 2018/12/10 10:00 UTC NOAA

Huambo Nova Lisboa , Angola (FNHU) 12-48S 015-45E 1701M
Dec 10, 2018 - 05:00 AM EST / 2018.12.10 1000 UTC
Wind: from the NNW (340 degrees) at 6 MPH (5 KT):0
Visibility: greater than 7 mile(s):0
Sky conditions: mostly clear
Temperature: 75 F (24 C)
Dew Point: 60 F (16 C)
Relative Humidity: 60%
Pressure (altimeter): 30.24 in. Hg (1024 hPa)
ob: FNHU 101000Z 34005KT 9999 FEW010 24/16 Q1024
cycle: 10

Station Type Date Time Source
FNHU TAF 2018/12/10 12:39 UTC NOAA

TAF TAF FNHU 101100Z 1012/1024 VRB03KT 9999 FEW010
BECMG 1015/1018 9999 BKN050
BECMG 1019/1021 OVC050


Example: see airport list